Time;durP1;ratioP1;P1;durP2;ratioP2;P2;SDS_P1;SDS_P2;PMS_P1;PMS_P2;Temp;Humidity;BMP_temperature;BMP_pressure;BME280_temperature;BME280_humidity;BME280_pressure;Samples;Min_cycle;Max_cycle;Signal;HPM_P1;HPM_P2
2023/01/15 00:01:47;;;;;;;2.10;0.77;;;6.70;99.90;;;;;;5032937;28;20207;-46
2023/01/15 00:04:13;;;;;;;2.47;0.70;;;6.70;99.90;;;;;;5034827;28;20286;-58
2023/01/15 00:06:42;;;;;;;2.03;0.50;;;6.70;99.90;;;;;;5026226;28;20231;-43
2023/01/15 00:09:13;;;;;;;2.60;0.60;;;6.70;99.90;;;;;;5026939;28;20220;-43
2023/01/15 00:11:40;;;;;;;6.97;0.80;;;6.60;99.90;;;;;;5023415;28;20196;-47
2023/01/15 00:14:07;;;;;;;1.80;0.50;;;6.60;99.90;;;;;;5018680;28;20231;-44
2023/01/15 00:16:34;;;;;;;2.30;0.60;;;6.60;99.90;;;;;;5029625;28;20204;-46
2023/01/15 00:19:03;;;;;;;3.93;0.53;;;6.60;99.90;;;;;;5026995;28;20247;-45
2023/01/15 00:21:30;;;;;;;0.87;0.40;;;6.60;99.90;;;;;;5024412;28;20674;-60
2023/01/15 00:29:28;;;;;;;2.60;0.57;;;6.60;99.90;;;;;;5017336;28;20302;-59
2023/01/15 00:31:57;;;;;;;2.30;0.37;;;6.60;99.90;;;;;;5036280;28;20204;-45
2023/01/15 00:34:25;;;;;;;2.97;0.57;;;6.60;99.90;;;;;;5022844;28;20212;-58
2023/01/15 00:36:52;;;;;;;5.63;0.70;;;6.50;99.90;;;;;;5021593;28;20188;-43
2023/01/15 00:39:20;;;;;;;0.93;0.37;;;6.60;99.90;;;;;;5024777;28;20710;-59
2023/01/15 00:41:47;;;;;;;2.47;0.53;;;6.60;99.90;;;;;;5026937;28;20278;-45
2023/01/15 00:44:15;;;;;;;3.13;0.47;;;6.50;99.90;;;;;;5036563;28;20245;-61
2023/01/15 00:46:42;;;;;;;1.37;0.60;;;6.50;99.90;;;;;;5018979;28;20887;-43
2023/01/15 00:49:09;;;;;;;2.60;0.47;;;6.50;99.90;;;;;;5032227;28;20216;-47
2023/01/15 00:51:36;;;;;;;2.70;0.47;;;6.50;99.90;;;;;;5023305;28;20261;-43
2023/01/15 00:54:04;;;;;;;3.93;0.60;;;6.50;99.90;;;;;;5025900;28;20251;-45
2023/01/15 00:56:32;;;;;;;4.47;0.77;;;6.50;99.90;;;;;;5022557;28;20231;-58
2023/01/15 00:59:01;;;;;;;3.13;0.70;;;6.50;99.90;;;;;;5026112;28;20223;-49
2023/01/15 01:01:28;;;;;;;1.07;0.40;;;6.50;99.90;;;;;;5011849;28;20199;-58
2023/01/15 01:03:55;;;;;;;1.43;0.50;;;6.50;99.90;;;;;;5032464;28;20199;-51
2023/01/15 01:06:23;;;;;;;3.57;0.73;;;6.50;99.90;;;;;;5022050;28;20222;-57
2023/01/15 01:08:50;;;;;;;1.90;0.50;;;6.50;99.90;;;;;;5030991;28;20246;-43
2023/01/15 01:11:18;;;;;;;1.07;0.50;;;6.50;99.90;;;;;;5030180;28;20231;-58
2023/01/15 01:13:47;;;;;;;1.33;0.77;;;6.50;99.90;;;;;;5025498;28;21012;-43
2023/01/15 01:16:29;;;;;;;4.77;0.80;;;6.50;99.90;;;;;;5009586;28;20222;-54
2023/01/15 01:18:57;;;;;;;1.03;0.50;;;6.50;99.90;;;;;;5025730;28;20687;-43
2023/01/15 01:21:25;;;;;;;3.60;0.70;;;6.50;99.90;;;;;;5031005;28;20228;-62
2023/01/15 01:23:52;;;;;;;1.40;0.40;;;6.50;99.90;;;;;;5036325;28;20215;-44
2023/01/15 01:26:19;;;;;;;1.63;0.60;;;6.50;99.90;;;;;;5023456;28;20207;-59
2023/01/15 01:28:50;;;;;;;2.33;0.53;;;6.50;99.90;;;;;;5023413;28;20997;-46
2023/01/15 01:31:18;;;;;;;1.67;0.50;;;6.50;99.90;;;;;;5018889;28;20621;-60
2023/01/15 01:33:48;;;;;;;1.33;0.43;;;6.50;99.90;;;;;;5022824;28;20219;-45
2023/01/15 01:36:16;;;;;;;1.97;0.60;;;6.50;99.90;;;;;;5027082;28;20200;-59
2023/01/15 01:38:43;;;;;;;5.40;0.50;;;6.50;99.90;;;;;;5023540;28;20418;-43
2023/01/15 01:41:10;;;;;;;5.13;0.90;;;6.50;99.90;;;;;;5030499;28;20214;-45
2023/01/15 01:43:55;;;;;;;2.47;0.93;;;6.50;99.90;;;;;;5038414;28;20195;-44
2023/01/15 01:46:22;;;;;;;2.47;0.70;;;6.50;99.90;;;;;;5027160;28;20227;-60
2023/01/15 01:48:52;;;;;;;1.70;0.60;;;6.50;99.90;;;;;;5010380;28;20215;-43
2023/01/15 01:51:20;;;;;;;1.87;0.50;;;6.50;99.90;;;;;;5029987;28;20697;-58
2023/01/15 01:53:47;;;;;;;3.47;0.60;;;6.50;99.90;;;;;;5018363;28;20214;-46
2023/01/15 01:56:16;;;;;;;3.03;0.50;;;6.60;99.90;;;;;;5026829;28;20557;-55
2023/01/15 01:58:45;;;;;;;2.63;0.70;;;6.60;99.90;;;;;;5020671;28;20227;-46
2023/01/15 02:01:13;;;;;;;2.70;0.73;;;6.60;99.90;;;;;;5025061;28;20258;-47
2023/01/15 02:03:40;;;;;;;4.10;0.60;;;6.60;99.90;;;;;;5010498;28;20200;-50
2023/01/15 02:06:09;;;;;;;4.87;1.33;;;6.60;99.90;;;;;;5034476;28;20207;-43
2023/01/15 02:08:38;;;;;;;2.23;0.40;;;6.60;99.90;;;;;;5015442;28;20230;-49
2023/01/15 02:11:06;;;;;;;2.70;0.80;;;6.60;99.90;;;;;;5026971;28;20238;-55
2023/01/15 02:13:37;;;;;;;2.73;0.80;;;6.60;99.90;;;;;;5021128;28;20884;-43
2023/01/15 02:16:10;;;;;;;2.07;0.70;;;6.60;99.90;;;;;;5023231;28;20254;-44
2023/01/15 02:18:45;;;;;;;3.53;0.80;;;6.70;99.90;;;;;;5006924;28;20215;-45
2023/01/15 02:21:22;;;;;;;2.43;0.70;;;6.70;99.90;;;;;;5029764;28;20202;-47
2023/01/15 02:24:01;;;;;;;4.23;0.60;;;6.70;99.90;;;;;;5031483;28;20353;-43
2023/01/15 02:26:56;;;;;;;3.70;1.30;;;6.70;99.90;;;;;;5023997;28;20231;-58
2023/01/15 02:29:31;;;;;;;2.30;0.93;;;6.70;99.90;;;;;;5020898;28;20311;-57
2023/01/15 02:32:02;;;;;;;2.23;0.90;;;6.70;99.90;;;;;;5022351;28;20261;-43
2023/01/15 02:34:33;;;;;;;3.63;0.73;;;6.70;99.90;;;;;;5009800;28;20208;-57
2023/01/15 02:37:06;;;;;;;2.87;0.93;;;6.70;99.90;;;;;;5035255;28;20204;-45
2023/01/15 02:39:38;;;;;;;0.97;0.70;;;6.70;99.90;;;;;;5016557;28;20293;-44
2023/01/15 02:42:09;;;;;;;2.63;0.80;;;6.70;99.90;;;;;;5025442;28;20204;-52
2023/01/15 02:44:47;;;;;;;4.17;0.80;;;6.70;99.90;;;;;;5018495;28;20207;-45
2023/01/15 02:47:18;;;;;;;5.27;1.00;;;6.70;99.90;;;;;;5017920;28;20211;-44
2023/01/15 02:49:47;;;;;;;1.87;0.70;;;6.70;99.90;;;;;;5009765;28;20227;-56
2023/01/15 02:52:22;;;;;;;4.30;1.30;;;6.70;99.90;;;;;;5026322;28;20253;-47
2023/01/15 02:54:52;;;;;;;8.77;1.03;;;6.80;99.90;;;;;;5029207;28;20696;-58
2023/01/15 02:57:22;;;;;;;4.07;0.93;;;6.80;99.90;;;;;;5039549;28;20196;-48
2023/01/15 02:59:58;;;;;;;5.70;1.23;;;6.80;99.90;;;;;;5031497;28;20589;-58
2023/01/15 03:02:30;;;;;;;3.53;0.70;;;6.70;99.90;;;;;;5038500;28;20207;-44
2023/01/15 03:05:01;;;;;;;4.00;1.17;;;6.70;99.90;;;;;;5016979;28;20238;-60
2023/01/15 03:07:34;;;;;;;3.53;1.07;;;6.70;99.90;;;;;;5023295;28;20204;-48
2023/01/15 03:10:03;;;;;;;3.77;0.97;;;6.70;99.90;;;;;;5020695;28;20199;-57
2023/01/15 03:13:01;;;;;;;5.93;0.90;;;6.80;99.90;;;;;;5020595;28;20227;-48
2023/01/15 03:18:31;;;;;;;4.57;1.20;;;6.80;99.90;;;;;;5005456;28;20227;-46
2023/01/15 03:21:03;;;;;;;2.70;0.90;;;6.80;99.90;;;;;;5004413;28;20208;-58
2023/01/15 03:23:30;;;;;;;3.47;1.03;;;6.70;99.90;;;;;;5029374;28;20196;-46
2023/01/15 03:25:57;;;;;;;3.30;1.00;;;6.80;99.90;;;;;;5015736;28;20222;-57
2023/01/15 03:28:33;;;;;;;5.87;1.10;;;6.80;99.90;;;;;;5023235;28;20772;-45
2023/01/15 03:31:00;;;;;;;3.53;0.93;;;6.80;99.90;;;;;;5021725;28;20746;-58
2023/01/15 03:33:28;;;;;;;8.90;1.10;;;6.80;99.90;;;;;;5023040;28;20204;-51
2023/01/15 03:35:58;;;;;;;6.10;1.03;;;6.80;99.90;;;;;;5010826;28;20213;-59
2023/01/15 03:38:40;;;;;;;2.43;0.90;;;6.80;99.90;;;;;;5029193;28;20253;-46
2023/01/15 03:41:19;;;;;;;7.50;0.90;;;6.70;99.90;;;;;;5017025;28;22572;-46
2023/01/15 03:44:02;;;;;;;4.20;0.80;;;6.70;99.90;;;;;;5025492;28;20248;-60
2023/01/15 03:46:55;;;;;;;4.13;0.97;;;6.70;99.90;;;;;;5043943;28;20210;-47
2023/01/15 03:49:31;;;;;;;5.87;1.40;;;6.70;99.90;;;;;;5041482;28;20227;-49
2023/01/15 03:52:05;;;;;;;5.03;1.13;;;6.70;99.90;;;;;;5029980;28;20208;-60
2023/01/15 03:54:42;;;;;;;6.03;1.17;;;6.70;99.90;;;;;;5051549;28;20554;-49
2023/01/15 03:57:16;;;;;;;2.90;1.03;;;6.70;99.90;;;;;;5018625;28;20285;-46
2023/01/15 03:59:51;;;;;;;2.77;1.00;;;6.70;99.90;;;;;;5037504;28;20218;-49
2023/01/15 04:02:41;;;;;;;4.73;0.80;;;6.70;99.90;;;;;;5043305;28;20259;-51
2023/01/15 04:05:09;;;;;;;8.30;1.20;;;6.70;99.90;;;;;;5028660;28;20183;-44
2023/01/15 04:07:36;;;;;;;2.23;0.77;;;6.70;99.90;;;;;;5017429;28;20253;-54
2023/01/15 04:10:25;;;;;;;2.33;0.60;;;6.70;99.90;;;;;;5027296;28;20210;-46
2023/01/15 04:12:53;;;;;;;4.90;1.13;;;6.70;99.90;;;;;;5023164;28;20290;-59
2023/01/15 04:15:21;;;;;;;4.83;1.00;;;6.70;99.90;;;;;;5029914;28;20280;-49
2023/01/15 04:17:49;;;;;;;3.47;1.00;;;6.70;99.90;;;;;;5037183;28;20290;-56
2023/01/15 04:20:16;;;;;;;4.80;0.87;;;6.70;99.90;;;;;;5022811;28;20223;-45
2023/01/15 04:22:45;;;;;;;8.27;1.20;;;6.70;99.90;;;;;;5016662;28;20209;-56
2023/01/15 04:25:11;;;;;;;3.77;1.20;;;6.60;99.90;;;;;;5027383;28;20222;-43
2023/01/15 04:27:38;;;;;;;5.33;1.37;;;6.60;99.90;;;;;;5028589;28;20619;-47
2023/01/15 04:30:06;;;;;;;6.80;1.20;;;6.60;99.90;;;;;;5023365;28;20193;-46
2023/01/15 04:32:34;;;;;;;4.60;0.87;;;6.70;99.90;;;;;;5031312;28;20192;-50
2023/01/15 04:35:01;;;;;;;6.10;1.10;;;6.70;99.90;;;;;;5029151;28;20188;-58
2023/01/15 04:37:28;;;;;;;6.87;1.57;;;6.60;99.90;;;;;;5040919;28;20674;-49
2023/01/15 04:39:55;;;;;;;7.10;1.10;;;6.60;99.90;;;;;;5014913;28;20229;-58
2023/01/15 04:45:08;;;;;;;4.60;1.17;;;6.60;99.90;;;;;;5025332;28;20358;-49
2023/01/15 04:47:36;;;;;;;7.83;1.23;;;6.60;99.90;;;;;;5024579;28;20204;-48
2023/01/15 04:50:04;;;;;;;6.40;1.10;;;6.60;99.90;;;;;;5021226;28;20706;-58
2023/01/15 04:52:31;;;;;;;8.40;1.20;;;6.60;99.90;;;;;;5025007;28;20242;-51
2023/01/15 04:54:58;;;;;;;4.30;0.83;;;6.60;99.90;;;;;;5014105;28;20219;-58
2023/01/15 04:57:24;;;;;;;3.63;1.33;;;6.60;99.90;;;;;;5039886;28;20717;-43
2023/01/15 04:59:51;;;;;;;5.23;1.33;;;6.60;99.90;;;;;;5032367;28;20212;-58
2023/01/15 05:02:19;;;;;;;11.90;1.20;;;6.60;99.90;;;;;;5022028;28;20204;-44
2023/01/15 05:04:47;;;;;;;7.53;1.30;;;6.50;99.90;;;;;;5031219;28;20199;-58
2023/01/15 05:07:14;;;;;;;6.03;1.50;;;6.60;99.90;;;;;;5034401;28;20200;-45
2023/01/15 05:09:41;;;;;;;6.00;1.20;;;6.50;99.90;;;;;;5012552;28;20299;-46
2023/01/15 05:12:09;;;;;;;4.67;1.30;;;6.50;99.90;;;;;;5030349;28;20216;-44
2023/01/15 05:14:36;;;;;;;6.07;1.43;;;6.60;99.90;;;;;;5020788;28;20211;-47
2023/01/15 05:17:03;;;;;;;5.90;1.10;;;6.60;99.90;;;;;;5026931;28;20211;-58
2023/01/15 05:19:30;;;;;;;5.47;1.43;;;6.60;99.90;;;;;;5030765;28;20219;-50
2023/01/15 05:21:58;;;;;;;7.33;1.30;;;6.60;99.90;;;;;;5021481;28;20200;-58
2023/01/15 05:24:25;;;;;;;7.67;0.77;;;6.60;99.90;;;;;;5011482;28;20996;-47
2023/01/15 05:26:52;;;;;;;4.03;1.37;;;6.60;99.90;;;;;;5028474;28;20265;-59
2023/01/15 05:29:19;;;;;;;3.20;1.30;;;6.60;99.90;;;;;;5021966;28;20337;-43
2023/01/15 05:31:46;;;;;;;6.57;1.93;;;6.60;99.90;;;;;;5025153;28;20212;-57
2023/01/15 05:34:13;;;;;;;4.63;1.23;;;6.60;99.90;;;;;;5029817;28;20192;-48
2023/01/15 05:36:40;;;;;;;4.83;1.13;;;6.60;99.90;;;;;;5025998;28;20204;-47
2023/01/15 05:39:08;;;;;;;3.27;1.07;;;6.60;99.90;;;;;;5003925;28;23518;-48
2023/01/15 05:44:24;;;;;;;1.93;0.93;;;6.60;99.90;;;;;;5018154;28;20262;-48
2023/01/15 05:46:53;;;;;;;3.10;1.10;;;6.60;99.90;;;;;;5019567;28;20204;-59
2023/01/15 05:49:22;;;;;;;13.43;1.70;;;6.60;99.90;;;;;;5027088;28;20223;-49
2023/01/15 05:51:50;;;;;;;4.20;1.10;;;6.60;99.90;;;;;;5041298;28;20203;-58
2023/01/15 05:54:23;;;;;;;4.90;1.00;;;6.60;99.90;;;;;;5022643;28;20292;-45
2023/01/15 05:56:50;;;;;;;5.43;1.13;;;6.60;99.90;;;;;;5033679;28;20199;-58
2023/01/15 05:59:20;;;;;;;3.47;1.50;;;6.60;99.90;;;;;;5022990;28;20243;-43
2023/01/15 06:01:46;;;;;;;3.43;1.07;;;6.60;99.90;;;;;;5022486;28;20207;-57
2023/01/15 06:04:14;;;;;;;6.90;1.40;;;6.60;99.90;;;;;;5028988;28;20278;-43
2023/01/15 06:06:42;;;;;;;3.97;1.20;;;6.60;99.90;;;;;;5025067;28;20282;-49
2023/01/15 06:09:10;;;;;;;8.60;1.50;;;6.60;99.90;;;;;;5020727;28;20902;-46
2023/01/15 06:11:38;;;;;;;13.97;1.40;;;6.50;99.90;;;;;;5014545;28;20208;-49
2023/01/15 06:14:05;;;;;;;4.07;1.10;;;6.50;99.90;;;;;;5026992;28;20200;-50
2023/01/15 06:16:33;;;;;;;6.87;1.20;;;6.50;99.90;;;;;;5022687;28;20207;-43
2023/01/15 06:19:02;;;;;;;6.27;1.13;;;6.50;99.90;;;;;;5031138;28;20301;-58
2023/01/15 06:21:29;;;;;;;2.13;1.03;;;6.50;99.90;;;;;;5024522;28;20695;-50
2023/01/15 06:23:56;;;;;;;2.57;1.00;;;6.60;99.90;;;;;;5022086;28;20207;-57
2023/01/15 06:26:24;;;;;;;7.47;1.80;;;6.60;99.90;;;;;;5009471;28;20200;-50
2023/01/15 06:28:52;;;;;;;4.43;1.30;;;6.60;99.90;;;;;;5032699;28;20228;-57
2023/01/15 06:31:21;;;;;;;8.30;1.57;;;6.60;99.90;;;;;;5018785;28;20207;-56
2023/01/15 06:33:48;;;;;;;6.67;1.93;;;6.60;99.90;;;;;;5023607;28;20678;-57
2023/01/15 06:36:17;;;;;;;5.73;1.37;;;6.60;99.90;;;;;;5021752;28;20493;-49
2023/01/15 06:38:44;;;;;;;6.23;1.50;;;6.60;99.90;;;;;;5024193;28;20228;-49
2023/01/15 06:49:29;;;;;;;7.67;1.47;;;6.70;99.90;;;;;;5038336;28;20288;-44
2023/01/15 06:51:55;;;;;;;4.90;1.17;;;6.80;99.90;;;;;;5028549;28;20283;-56
2023/01/15 06:54:23;;;;;;;9.67;1.20;;;6.80;99.90;;;;;;5022495;28;20291;-45
2023/01/15 06:56:50;;;;;;;3.47;1.60;;;6.80;99.90;;;;;;5008634;28;20203;-58
2023/01/15 06:59:18;;;;;;;7.30;1.23;;;6.80;99.90;;;;;;5032758;28;20320;-45
2023/01/15 07:01:45;;;;;;;5.23;1.43;;;6.80;99.90;;;;;;5025909;28;20207;-58
2023/01/15 07:04:12;;;;;;;7.17;1.37;;;6.80;99.90;;;;;;5017362;28;20223;-43
2023/01/15 07:06:39;;;;;;;4.73;1.50;;;6.80;99.90;;;;;;5023726;28;20207;-43
2023/01/15 07:09:06;;;;;;;8.47;1.37;;;6.80;99.90;;;;;;5019901;28;20223;-43
2023/01/15 07:11:34;;;;;;;2.73;1.43;;;6.80;99.90;;;;;;5010618;28;20673;-45
2023/01/15 07:14:07;;;;;;;7.17;1.60;;;6.80;99.90;;;;;;5031174;28;20203;-60
2023/01/15 07:16:36;;;;;;;4.33;1.63;;;6.80;99.90;;;;;;5023721;28;20665;-46
2023/01/15 07:19:04;;;;;;;4.83;1.30;;;6.80;99.90;;;;;;5022153;28;20223;-58
2023/01/15 07:21:31;;;;;;;6.50;1.57;;;6.80;99.90;;;;;;5029771;28;20210;-50
2023/01/15 07:23:59;;;;;;;4.10;1.30;;;6.80;99.90;;;;;;5020957;28;20199;-57
2023/01/15 07:26:26;;;;;;;4.73;1.33;;;6.80;99.90;;;;;;5009538;28;20203;-43
2023/01/15 07:28:53;;;;;;;10.10;1.33;;;6.80;99.90;;;;;;5027745;28;20220;-57
2023/01/15 07:31:20;;;;;;;13.37;1.73;;;6.80;99.90;;;;;;5027091;28;20253;-49
2023/01/15 07:33:48;;;;;;;6.23;1.43;;;6.80;99.90;;;;;;5022890;28;20200;-58
2023/01/15 07:36:15;;;;;;;5.60;1.47;;;6.80;99.90;;;;;;5018792;28;20199;-45
2023/01/15 07:38:43;;;;;;;4.80;1.43;;;6.80;99.90;;;;;;5023741;28;20295;-43
2023/01/15 07:52:10;;;;;;;6.30;1.40;;;6.80;99.90;;;;;;5033400;28;20191;-43
2023/01/15 07:54:37;;;;;;;2.57;1.10;;;6.80;99.90;;;;;;5042437;28;20211;-44
2023/01/15 07:57:04;;;;;;;7.07;1.50;;;6.70;99.90;;;;;;5020521;28;20249;-60
2023/01/15 07:59:32;;;;;;;5.50;1.20;;;6.80;99.90;;;;;;5031632;28;20224;-42
2023/01/15 08:01:58;;;;;;;12.90;1.90;;;6.70;99.90;;;;;;5020366;28;20439;-55
2023/01/15 08:04:27;;;;;;;5.97;1.63;;;6.70;99.90;;;;;;5023231;28;20196;-47
2023/01/15 08:06:54;;;;;;;6.60;1.40;;;6.70;99.90;;;;;;5019730;28;20208;-56
2023/01/15 08:09:21;;;;;;;6.17;0.93;;;6.70;99.90;;;;;;5040450;28;20272;-41
2023/01/15 08:17:18;;;;;;;5.80;1.50;;;6.70;99.90;;;;;;5026833;28;20293;-41
2023/01/15 08:19:46;;;;;;;5.07;2.27;;;6.60;99.90;;;;;;5035616;28;20222;-58
2023/01/15 08:22:13;;;;;;;6.10;1.10;;;6.70;99.90;;;;;;5028514;28;20254;-43
2023/01/15 08:24:40;;;;;;;7.30;1.57;;;6.70;99.90;;;;;;5026888;28;20200;-43
2023/01/15 08:27:07;;;;;;;12.07;1.90;;;6.70;99.90;;;;;;5007116;28;20223;-43
2023/01/15 08:29:34;;;;;;;5.40;1.27;;;6.70;99.90;;;;;;5035282;28;20223;-46
2023/01/15 08:32:01;;;;;;;6.57;1.37;;;6.60;99.90;;;;;;5026643;28;20282;-48
2023/01/15 08:34:28;;;;;;;9.40;1.60;;;6.60;99.90;;;;;;5036427;28;20699;-47
2023/01/15 08:36:58;;;;;;;8.70;1.80;;;6.60;99.90;;;;;;5027264;28;20208;-52
2023/01/15 08:39:26;;;;;;;5.13;1.50;;;6.60;99.90;;;;;;5025776;28;20251;-47
2023/01/15 08:41:53;;;;;;;5.60;1.20;;;6.60;99.90;;;;;;5023379;28;20206;-48
2023/01/15 08:44:22;;;;;;;9.03;1.07;;;6.50;99.90;;;;;;5010745;28;20211;-46
2023/01/15 08:46:50;;;;;;;3.47;1.10;;;6.50;99.90;;;;;;5027223;28;20211;-46
2023/01/15 08:49:17;;;;;;;9.17;1.67;;;6.50;99.90;;;;;;5023323;28;20354;-46
2023/01/15 08:51:46;;;;;;;3.27;1.00;;;6.50;99.90;;;;;;5024143;28;20212;-45
2023/01/15 08:54:14;;;;;;;7.13;1.47;;;6.50;99.90;;;;;;5022826;28;20297;-46
2023/01/15 08:56:41;;;;;;;7.87;1.93;;;6.50;99.90;;;;;;5026384;28;20667;-49
2023/01/15 08:59:08;;;;;;;5.60;1.23;;;6.50;99.90;;;;;;5009163;28;20501;-46
2023/01/15 09:01:35;;;;;;;6.17;1.63;;;6.40;99.90;;;;;;5040096;28;20211;-50
2023/01/15 09:04:05;;;;;;;6.33;1.00;;;6.40;99.90;;;;;;5025829;28;20685;-52
2023/01/15 09:06:31;;;;;;;4.83;1.07;;;6.40;99.90;;;;;;5031319;28;20199;-47
2023/01/15 09:08:59;;;;;;;6.13;1.30;;;6.30;99.90;;;;;;5024766;28;20220;-51
2023/01/15 09:11:28;;;;;;;4.60;1.53;;;6.40;99.90;;;;;;5025349;28;20196;-46
2023/01/15 09:13:55;;;;;;;4.07;1.13;;;6.40;99.90;;;;;;5014212;28;20197;-51
2023/01/15 09:16:22;;;;;;;6.03;1.50;;;6.40;99.90;;;;;;5026174;28;20226;-47
2023/01/15 09:18:50;;;;;;;6.23;1.73;;;6.40;99.90;;;;;;5024082;28;20277;-45
2023/01/15 09:21:16;;;;;;;6.33;1.47;;;6.50;99.90;;;;;;5020849;28;20202;-46
2023/01/15 09:23:43;;;;;;;3.00;0.93;;;6.50;99.90;;;;;;5026733;28;20617;-44
2023/01/15 09:26:27;;;;;;;6.87;1.17;;;6.50;99.90;;;;;;5020876;28;20195;-44
2023/01/15 09:28:55;;;;;;;4.13;0.80;;;6.40;99.90;;;;;;5026455;28;20242;-49
2023/01/15 09:31:22;;;;;;;3.00;0.97;;;6.50;99.90;;;;;;5024612;28;20216;-48
2023/01/15 09:33:49;;;;;;;4.63;1.10;;;6.60;99.90;;;;;;5036470;28;20266;-49
2023/01/15 09:36:16;;;;;;;6.93;1.67;;;6.60;99.90;;;;;;5019436;28;20207;-48
2023/01/15 09:38:44;;;;;;;4.83;1.50;;;6.70;99.90;;;;;;5025461;28;20310;-46
2023/01/15 09:42:04;;;;;;;3.70;1.27;;;6.70;99.90;;;;;;5021478;28;20199;-46
2023/01/15 09:44:14;;;;;;;4.03;1.33;;;6.70;99.90;;;;;;5010189;28;20732;-48
2023/01/15 09:46:53;;;;;;;4.97;1.00;;;6.80;99.90;;;;;;5038773;28;20204;-51
2023/01/15 09:49:34;;;;;;;8.27;1.20;;;6.90;99.90;;;;;;5023182;28;20211;-46
2023/01/15 09:52:08;;;;;;;6.10;1.13;;;7.10;99.90;;;;;;5022245;28;20250;-49
2023/01/15 09:54:48;;;;;;;3.43;0.97;;;7.20;99.90;;;;;;5025168;28;20203;-47
2023/01/15 09:57:18;;;;;;;3.30;0.83;;;7.30;99.90;;;;;;5022362;28;20241;-46
2023/01/15 09:59:48;;;;;;;4.13;0.87;;;7.20;99.90;;;;;;5014350;28;20219;-49
2023/01/15 10:02:22;;;;;;;4.70;0.90;;;7.20;99.90;;;;;;5028146;28;20200;-45
2023/01/15 10:04:55;;;;;;;3.20;0.90;;;7.20;99.90;;;;;;5038554;28;20210;-47
2023/01/15 10:07:28;;;;;;;2.27;0.77;;;7.20;99.90;;;;;;5023401;28;20254;-46
2023/01/15 10:10:00;;;;;;;6.90;0.83;;;7.10;99.90;;;;;;5022735;28;20304;-49
2023/01/15 10:12:35;;;;;;;4.90;1.33;;;7.20;99.90;;;;;;5024132;28;20667;-46
2023/01/15 10:15:22;;;;;;;2.87;1.10;;;7.10;99.90;;;;;;5007104;28;20669;-50
2023/01/15 10:17:52;;;;;;;3.43;0.90;;;7.10;99.90;;;;;;5032757;28;20199;-45
2023/01/15 10:20:58;;;;;;;3.83;1.03;;;7.20;99.90;;;;;;5024571;28;20692;-46
2023/01/15 10:23:35;;;;;;;3.07;1.77;;;7.10;99.90;;;;;;5023447;28;20235;-47
2023/01/15 10:26:10;;;;;;;3.73;0.80;;;7.10;99.90;;;;;;5020884;28;20200;-51
2023/01/15 10:28:57;;;;;;;3.97;0.70;;;7.10;99.90;;;;;;5037395;28;20234;-46
2023/01/15 10:31:48;;;;;;;2.77;0.60;;;7.20;99.90;;;;;;5020198;28;20216;-50
2023/01/15 10:34:44;;;;;;;1.87;0.60;;;7.10;99.90;;;;;;5023571;28;20204;-46
2023/01/15 10:37:18;;;;;;;1.83;0.63;;;7.10;99.90;;;;;;5017808;28;20286;-49
2023/01/15 10:39:56;;;;;;;5.03;0.90;;;7.10;99.90;;;;;;5024091;28;20243;-51
2023/01/15 10:42:37;;;;;;;5.83;1.70;;;7.10;99.90;;;;;;5022765;28;20192;-49
2023/01/15 10:45:12;;;;;;;4.37;1.50;;;7.10;99.90;;;;;;5020249;28;20196;-51
2023/01/15 10:47:43;;;;;;;6.20;1.50;;;7.00;99.90;;;;;;5012257;28;20211;-46
2023/01/15 10:50:17;;;;;;;4.13;1.20;;;7.10;99.90;;;;;;5034257;28;20215;-46
2023/01/15 10:52:48;;;;;;;3.73;1.17;;;7.00;99.90;;;;;;5023690;28;20212;-51
2023/01/15 10:55:20;;;;;;;2.97;0.80;;;7.10;99.90;;;;;;5021259;28;20870;-50
2023/01/15 10:57:52;;;;;;;2.43;0.90;;;7.10;99.90;;;;;;5023184;28;20667;-48
2023/01/15 11:00:21;;;;;;;2.53;1.03;;;7.10;99.90;;;;;;5022150;28;20271;-45
2023/01/15 11:03:00;;;;;;;3.03;0.97;;;7.10;99.90;;;;;;5014475;28;20246;-49
2023/01/15 11:05:35;;;;;;;4.03;1.20;;;7.10;99.90;;;;;;5027681;28;20211;-45
2023/01/15 11:08:06;;;;;;;3.63;0.97;;;7.10;99.90;;;;;;5020283;28;20222;-48
2023/01/15 11:10:33;;;;;;;6.23;0.80;;;7.00;99.90;;;;;;5023437;28;20211;-47
2023/01/15 11:21:32;;;;;;;3.57;0.77;;;7.00;99.90;;;;;;5031697;28;20196;-48
2023/01/15 11:24:00;;;;;;;2.83;1.00;;;7.00;99.90;;;;;;5020731;28;20202;-47
2023/01/15 11:26:30;;;;;;;1.07;0.60;;;7.00;99.90;;;;;;5023266;28;20200;-48
2023/01/15 11:29:00;;;;;;;3.80;0.93;;;7.00;99.90;;;;;;5021368;28;20712;-50
2023/01/15 11:31:36;;;;;;;6.37;1.07;;;7.00;99.90;;;;;;5023951;28;20234;-49
2023/01/15 11:34:06;;;;;;;2.13;0.90;;;7.10;99.90;;;;;;5011850;28;20210;-53
2023/01/15 11:36:33;;;;;;;3.93;1.07;;;7.10;99.90;;;;;;5029348;28;20768;-46
2023/01/15 11:39:00;;;;;;;4.77;1.00;;;7.10;99.90;;;;;;5020385;28;20227;-49
2023/01/15 11:50:42;;;;;;;2.53;0.87;;;7.10;99.90;;;;;;5022751;28;20196;-47
2023/01/15 11:52:45;;;;;;;4.47;0.70;;;7.10;99.90;;;;;;5038441;28;20257;-47
2023/01/15 11:55:14;;;;;;;2.47;0.63;;;7.00;99.90;;;;;;5023981;28;20413;-46
2023/01/15 11:57:41;;;;;;;1.00;0.60;;;6.90;99.90;;;;;;5027365;28;20200;-46
2023/01/15 12:00:20;;;;;;;1.20;0.40;;;6.90;99.90;;;;;;5023684;28;20184;-48
2023/01/15 12:02:49;;;;;;;2.63;0.40;;;6.90;99.90;;;;;;5034508;28;20198;-48
2023/01/15 12:05:20;;;;;;;1.67;0.40;;;6.90;99.90;;;;;;5011411;28;20332;-47
2023/01/15 12:07:49;;;;;;;1.60;0.40;;;6.60;99.90;;;;;;5035329;28;20208;-50
2023/01/15 12:11:02;;;;;;;0.60;0.40;;;6.50;99.90;;;;;;5024173;28;20219;-50
2023/01/15 12:13:21;;;;;;;1.00;0.40;;;6.30;99.90;;;;;;5022781;28;20198;-50
2023/01/15 12:15:59;;;;;;;2.73;0.40;;;6.10;99.90;;;;;;5038926;28;20203;-49
2023/01/15 12:18:54;;;;;;;1.30;0.20;;;6.00;99.90;;;;;;5025711;28;20223;-49
2023/01/15 12:21:36;;;;;;;0.70;0.40;;;6.00;99.90;;;;;;5007341;28;20199;-46
2023/01/15 12:24:30;;;;;;;2.20;0.20;;;6.00;99.90;;;;;;5032989;28;20210;-51
2023/01/15 12:27:15;;;;;;;1.17;0.20;;;6.00;99.90;;;;;;5017263;28;20235;-49
2023/01/15 12:29:47;;;;;;;2.00;0.30;;;6.10;99.90;;;;;;5039501;28;20302;-46
2023/01/15 12:32:18;;;;;;;0.80;0.23;;;6.20;99.90;;;;;;5040951;28;20219;-48
2023/01/15 12:34:53;;;;;;;3.00;0.30;;;6.30;99.90;;;;;;5037795;28;20196;-51
2023/01/15 12:37:26;;;;;;;0.47;0.30;;;6.40;99.90;;;;;;5008281;28;20207;-46
2023/01/15 12:39:58;;;;;;;1.70;0.33;;;6.40;99.90;;;;;;5030216;28;20269;-49
2023/01/15 12:45:16;;;;;;;1.57;0.40;;;6.50;99.90;;;;;;5022537;28;20187;-48
2023/01/15 12:47:49;;;;;;;1.90;0.80;;;6.50;99.90;;;;;;5025705;28;20673;-46
2023/01/15 12:50:28;;;;;;;1.23;0.57;;;6.50;99.90;;;;;;5037018;28;20984;-48
2023/01/15 12:53:03;;;;;;;0.87;0.33;;;6.40;99.90;;;;;;5015141;28;20214;-48
2023/01/15 12:55:35;;;;;;;2.17;0.70;;;6.30;99.90;;;;;;5041143;28;20687;-46
2023/01/15 12:58:10;;;;;;;1.33;0.30;;;6.30;99.90;;;;;;5041522;28;20306;-46
2023/01/15 13:00:41;;;;;;;3.43;0.60;;;6.30;99.90;;;;;;5045192;28;20201;-46
2023/01/15 13:03:23;;;;;;;2.80;0.60;;;6.20;99.90;;;;;;5040160;28;20887;-50
2023/01/15 13:05:53;;;;;;;2.17;1.00;;;6.20;99.90;;;;;;5030245;28;20253;-49
2023/01/15 13:08:27;;;;;;;2.87;0.90;;;6.20;99.90;;;;;;5023353;28;20246;-49
2023/01/15 13:10:54;;;;;;;1.57;0.80;;;6.20;99.90;;;;;;5024014;28;20230;-48
2023/01/15 13:13:23;;;;;;;2.10;0.57;;;6.10;99.90;;;;;;5023886;28;20250;-48
2023/01/15 13:16:07;;;;;;;2.83;0.50;;;6.20;99.90;;;;;;5024876;28;20246;-48
2023/01/15 13:18:46;;;;;;;1.20;0.50;;;6.20;99.90;;;;;;5025523;28;20228;-46
2023/01/15 13:21:16;;;;;;;4.40;0.90;;;6.20;99.90;;;;;;5005172;28;20212;-45
2023/01/15 13:24:03;;;;;;;4.83;0.90;;;6.20;99.90;;;;;;5035922;28;20200;-46
2023/01/15 13:26:53;;;;;;;6.77;1.00;;;6.20;99.90;;;;;;5026582;28;20210;-47
2023/01/15 13:29:24;;;;;;;5.27;0.70;;;6.30;99.90;;;;;;5023666;28;20215;-45
2023/01/15 13:31:58;;;;;;;2.00;0.60;;;6.30;99.90;;;;;;5022079;28;20768;-50
2023/01/15 13:34:31;;;;;;;2.03;0.93;;;6.40;99.90;;;;;;5028433;28;20578;-47
2023/01/15 13:37:03;;;;;;;5.80;0.97;;;6.40;99.90;;;;;;5012041;28;20696;-50
2023/01/15 13:39:41;;;;;;;5.43;1.07;;;6.40;99.90;;;;;;5026554;28;20433;-48
2023/01/15 13:42:33;;;;;;;2.37;0.90;;;6.40;99.90;;;;;;5020194;28;20907;-46
2023/01/15 13:45:06;;;;;;;5.57;0.70;;;6.50;99.90;;;;;;5041421;28;20712;-52
2023/01/15 13:47:37;;;;;;;3.70;1.00;;;6.50;99.90;;;;;;5030583;28;20291;-46
2023/01/15 13:50:12;;;;;;;1.70;0.70;;;6.60;99.90;;;;;;5037588;28;20812;-46
2023/01/15 13:52:40;;;;;;;2.20;0.87;;;6.60;99.90;;;;;;5015135;28;20219;-47
2023/01/15 13:55:31;;;;;;;4.10;0.93;;;6.70;99.90;;;;;;5022881;28;20199;-48
2023/01/15 13:57:58;;;;;;;1.43;0.87;;;6.70;99.90;;;;;;5026598;28;20192;-46
2023/01/15 14:00:31;;;;;;;3.33;0.90;;;6.80;99.90;;;;;;5034651;28;20192;-47
2023/01/15 14:02:59;;;;;;;9.27;1.23;;;6.80;99.90;;;;;;5032797;28;20851;-46
2023/01/15 14:05:30;;;;;;;5.13;0.83;;;6.90;99.90;;;;;;5041239;28;20724;-48
2023/01/15 14:07:57;;;;;;;4.70;0.70;;;6.90;99.90;;;;;;5013930;28;20243;-50
2023/01/15 14:10:39;;;;;;;7.70;1.27;;;6.90;99.90;;;;;;5033822;28;20200;-48
2023/01/15 14:13:35;;;;;;;1.83;0.70;;;7.00;99.90;;;;;;5021631;28;20229;-49
2023/01/15 14:16:17;;;;;;;4.50;0.97;;;7.00;99.90;;;;;;5028334;28;20199;-50
2023/01/15 14:19:03;;;;;;;3.73;1.23;;;7.00;99.90;;;;;;5037821;28;20215;-47